createdAt,value
2023-04-26T00:01:58.932Z,17.90
2023-04-26T00:04:26.326Z,17.90
2023-04-26T00:06:53.330Z,17.88
2023-04-26T00:09:20.462Z,17.86
2023-04-26T00:11:47.455Z,17.89
2023-04-26T00:14:14.432Z,17.85
2023-04-26T00:16:41.519Z,17.85
2023-04-26T00:19:10.719Z,17.85
2023-04-26T00:21:38.054Z,17.85
2023-04-26T00:24:05.974Z,17.84
2023-04-26T00:26:34.488Z,17.82
2023-04-26T00:29:05.830Z,17.78
2023-04-26T00:31:33.234Z,17.75
2023-04-26T00:34:00.367Z,17.76
2023-04-26T00:36:27.940Z,17.77
2023-04-26T00:38:55.103Z,17.74
2023-04-26T00:41:22.739Z,17.75
2023-04-26T00:43:49.807Z,17.73
2023-04-26T00:46:17.183Z,17.72
2023-04-26T00:48:45.120Z,17.72
2023-04-26T00:51:13.457Z,17.71
2023-04-26T00:53:41.415Z,17.68
2023-04-26T00:56:10.254Z,17.67
2023-04-26T00:58:37.961Z,17.68
2023-04-26T01:01:05.069Z,17.64
2023-04-26T01:03:32.244Z,17.63
2023-04-26T01:06:01.145Z,17.63
2023-04-26T01:08:28.164Z,17.60
2023-04-26T01:10:59.199Z,17.59
2023-04-26T01:13:26.857Z,17.57
2023-04-26T01:15:56.325Z,17.56
2023-04-26T01:18:23.503Z,17.56
2023-04-26T01:20:52.210Z,17.59
2023-04-26T01:23:19.344Z,17.62
2023-04-26T01:25:46.378Z,17.65
2023-04-26T01:28:13.396Z,17.63
2023-04-26T01:30:40.300Z,17.66
2023-04-26T01:33:07.705Z,17.69
2023-04-26T01:35:34.755Z,17.70
2023-04-26T01:38:02.789Z,17.74
2023-04-26T01:40:29.816Z,17.75
2023-04-26T01:42:57.074Z,17.77
2023-04-26T01:45:24.274Z,17.77
2023-04-26T01:48:10.207Z,17.75
2023-04-26T01:50:37.209Z,17.78
2023-04-26T01:53:04.212Z,17.77
2023-04-26T01:55:31.169Z,17.77
2023-04-26T01:57:58.086Z,17.78
2023-04-26T02:00:25.139Z,17.79
2023-04-26T02:02:55.625Z,17.81
2023-04-26T02:05:24.592Z,17.77
2023-04-26T02:07:51.701Z,17.76
2023-04-26T02:10:18.785Z,17.73
2023-04-26T02:12:45.832Z,17.73
2023-04-26T02:15:12.859Z,17.71
2023-04-26T02:17:39.949Z,17.70
2023-04-26T02:20:10.509Z,17.67
2023-04-26T02:22:37.652Z,17.66
2023-04-26T02:25:05.579Z,17.67
2023-04-26T02:27:33.867Z,17.66
2023-04-26T02:30:01.114Z,17.65
2023-04-26T02:32:28.204Z,17.67
2023-04-26T02:34:57.491Z,17.67
2023-04-26T02:37:24.788Z,17.67
2023-04-26T02:39:52.315Z,17.69
2023-04-26T02:42:19.410Z,17.67
2023-04-26T02:44:47.427Z,17.69
2023-04-26T02:47:14.533Z,17.70
2023-04-26T02:49:41.478Z,17.72
2023-04-26T02:52:08.551Z,17.74
2023-04-26T02:54:36.518Z,17.73
2023-04-26T02:57:04.456Z,17.71
2023-04-26T02:59:31.600Z,17.71
2023-04-26T03:01:58.575Z,17.68
2023-04-26T03:04:25.882Z,17.71
2023-04-26T03:06:52.900Z,17.68
2023-04-26T03:09:20.070Z,17.68
2023-04-26T03:11:49.605Z,17.69
2023-04-26T03:14:18.065Z,17.66
2023-04-26T03:16:48.624Z,17.70
2023-04-26T03:19:16.201Z,17.69
2023-04-26T03:21:44.103Z,17.71
2023-04-26T03:24:11.795Z,17.72
2023-04-26T03:26:38.993Z,17.72
2023-04-26T03:29:06.957Z,17.71
2023-04-26T03:31:33.915Z,17.70
2023-04-26T03:34:01.131Z,17.64
2023-04-26T03:36:30.924Z,17.62
2023-04-26T03:38:58.031Z,17.61
2023-04-26T03:41:25.180Z,17.58
2023-04-26T03:43:53.748Z,17.56
2023-04-26T03:46:21.068Z,17.56
2023-04-26T03:48:48.826Z,17.54
2023-04-26T03:51:16.743Z,17.51
2023-04-26T03:53:43.827Z,17.50
2023-04-26T03:56:10.860Z,17.50
2023-04-26T03:58:37.983Z,17.51
2023-04-26T04:01:05.114Z,17.51
2023-04-26T04:03:32.329Z,17.47
2023-04-26T04:05:59.528Z,17.44
2023-04-26T04:08:26.494Z,17.47
2023-04-26T04:10:53.534Z,17.46
2023-04-26T04:13:20.510Z,17.47
2023-04-26T04:15:47.649Z,17.46
2023-04-26T04:18:14.706Z,17.49
2023-04-26T04:20:42.069Z,17.46
2023-04-26T04:23:10.193Z,17.47
2023-04-26T04:25:39.623Z,17.46
2023-04-26T04:28:09.680Z,17.46
2023-04-26T04:30:37.042Z,17.47
2023-04-26T04:33:05.496Z,17.46
2023-04-26T04:35:34.350Z,17.50
2023-04-26T04:38:04.432Z,17.47
2023-04-26T04:40:50.590Z,17.49
2023-04-26T04:43:18.512Z,17.46
2023-04-26T04:45:46.523Z,17.49
2023-04-26T04:48:13.563Z,17.48
2023-04-26T04:50:40.677Z,17.49
2023-04-26T04:53:09.159Z,17.48
2023-04-26T04:55:36.797Z,17.50
2023-04-26T04:58:04.333Z,17.45
2023-04-26T05:00:32.818Z,17.51
2023-04-26T05:03:11.468Z,17.50
2023-04-26T05:05:38.737Z,17.49
2023-04-26T05:08:07.961Z,17.51
2023-04-26T05:10:36.215Z,17.52
2023-04-26T05:13:03.612Z,17.53
2023-04-26T05:15:30.732Z,17.56
2023-04-26T05:17:59.697Z,17.56
2023-04-26T05:20:26.918Z,17.60
2023-04-26T05:22:55.135Z,17.60
2023-04-26T05:25:23.011Z,17.63
2023-04-26T05:27:56.796Z,17.66
2023-04-26T05:30:53.378Z,17.71
2023-04-26T05:33:40.363Z,17.76
2023-04-26T05:36:30.335Z,17.82
2023-04-26T05:38:57.555Z,17.80
2023-04-26T05:41:24.617Z,17.89
2023-04-26T05:43:52.240Z,17.95
2023-04-26T05:46:19.490Z,18.01
2023-04-26T05:48:46.677Z,18.08
2023-04-26T05:51:13.805Z,18.17
2023-04-26T05:53:41.797Z,18.27
2023-04-26T05:56:08.723Z,18.34
2023-04-26T05:58:35.842Z,18.47
2023-04-26T06:01:05.301Z,18.57
2023-04-26T06:03:33.768Z,18.72
2023-04-26T06:06:01.522Z,18.88
2023-04-26T06:08:28.784Z,19.41
2023-04-26T06:10:55.777Z,20.13
2023-04-26T06:13:22.776Z,20.63
2023-04-26T06:15:49.747Z,21.15
2023-04-26T06:18:16.797Z,22.09
2023-04-26T06:20:43.735Z,22.87
2023-04-26T06:23:10.797Z,23.57
2023-04-26T06:25:37.958Z,24.19
2023-04-26T06:28:05.083Z,24.84
2023-04-26T06:30:32.312Z,25.27
2023-04-26T06:33:00.427Z,25.71
2023-04-26T06:35:27.766Z,26.24
2023-04-26T06:37:54.798Z,26.70
2023-04-26T06:40:22.358Z,27.19
2023-04-26T06:42:49.464Z,27.79
2023-04-26T06:45:17.235Z,28.22
2023-04-26T06:47:45.837Z,28.90
2023-04-26T06:50:13.290Z,29.31
2023-04-26T06:52:40.236Z,29.87
2023-04-26T06:55:07.805Z,30.45
2023-04-26T06:57:34.731Z,31.05
2023-04-26T07:00:02.046Z,31.67
2023-04-26T07:02:29.177Z,32.22
2023-04-26T07:04:56.610Z,32.69
2023-04-26T07:07:23.850Z,33.20
2023-04-26T07:09:50.839Z,33.36
2023-04-26T07:12:17.736Z,33.72
2023-04-26T07:14:44.715Z,34.16
2023-04-26T07:17:11.827Z,34.34
2023-04-26T07:19:38.912Z,34.46
2023-04-26T07:22:06.168Z,34.46
2023-04-26T07:24:33.271Z,33.88
2023-04-26T07:27:00.231Z,34.42
2023-04-26T07:29:27.218Z,34.64
2023-04-26T07:31:54.235Z,33.97
2023-04-26T07:34:21.384Z,33.84
2023-04-26T07:36:48.422Z,34.26
2023-04-26T07:39:15.904Z,34.12
2023-04-26T07:41:44.179Z,33.73
2023-04-26T07:44:11.577Z,34.73
2023-04-26T07:46:38.689Z,35.44
2023-04-26T07:49:06.015Z,36.07
2023-04-26T07:51:33.528Z,36.62
2023-04-26T07:54:00.762Z,37.17
2023-04-26T07:56:27.708Z,37.34
2023-04-26T07:58:54.682Z,37.73
2023-04-26T08:01:21.969Z,37.29
2023-04-26T08:03:49.415Z,36.90
2023-04-26T08:06:16.982Z,36.10
2023-04-26T08:08:50.750Z,35.16
2023-04-26T08:11:18.396Z,36.33
2023-04-26T08:13:45.532Z,36.88
2023-04-26T08:16:12.748Z,37.02
2023-04-26T08:18:40.383Z,37.39
2023-04-26T08:21:07.300Z,36.01
2023-04-26T08:23:38.429Z,34.80
2023-04-26T08:26:06.618Z,34.51
2023-04-26T08:28:33.675Z,34.63
2023-04-26T08:31:00.681Z,34.19
2023-04-26T08:33:27.686Z,33.78
2023-04-26T08:35:54.568Z,33.56
2023-04-26T08:38:22.864Z,33.68
2023-04-26T08:40:51.691Z,33.74
2023-04-26T08:43:18.602Z,33.38
2023-04-26T08:45:49.336Z,33.08
2023-04-26T08:48:18.431Z,31.60
2023-04-26T08:50:46.759Z,31.51
2023-04-26T08:53:18.644Z,32.74
2023-04-26T08:55:49.898Z,32.94
2023-04-26T08:58:20.424Z,31.76
2023-04-26T09:00:48.126Z,31.07
2023-04-26T09:03:15.310Z,31.30
2023-04-26T09:05:45.985Z,29.71
2023-04-26T09:08:19.372Z,29.11
2023-04-26T09:10:46.633Z,29.18
2023-04-26T09:13:14.617Z,29.27
2023-04-26T09:15:42.212Z,28.80
2023-04-26T09:18:20.424Z,29.09
2023-04-26T09:21:03.034Z,28.37
2023-04-26T09:23:30.038Z,28.12
2023-04-26T09:25:56.925Z,28.02
2023-04-26T09:28:24.742Z,27.48
2023-04-26T09:30:51.756Z,26.97
2023-04-26T09:33:19.649Z,26.84
2023-04-26T09:35:46.642Z,26.89
2023-04-26T09:38:14.831Z,26.17
2023-04-26T09:40:46.882Z,26.06
2023-04-26T09:43:18.876Z,26.11
2023-04-26T09:45:57.186Z,26.32
2023-04-26T09:48:26.249Z,26.03
2023-04-26T09:50:55.373Z,24.69
2023-04-26T09:53:50.311Z,24.37
2023-04-26T09:56:19.863Z,23.58
2023-04-26T09:58:46.685Z,23.39
2023-04-26T10:01:18.945Z,23.11
2023-04-26T10:03:47.628Z,22.65
2023-04-26T10:06:15.628Z,22.48
2023-04-26T10:08:43.173Z,22.42
2023-04-26T10:11:14.029Z,22.41
2023-04-26T10:13:42.384Z,22.20
2023-04-26T10:16:12.573Z,22.10
2023-04-26T10:18:39.636Z,21.82
2023-04-26T10:21:17.059Z,22.05
2023-04-26T10:23:44.864Z,22.29
2023-04-26T10:26:53.499Z,22.61
2023-04-26T10:29:22.312Z,22.86
2023-04-26T10:32:18.653Z,22.97
2023-04-26T10:35:05.782Z,22.87
2023-04-26T10:37:32.790Z,22.99
2023-04-26T10:40:27.526Z,22.92
2023-04-26T10:43:30.022Z,22.82
2023-04-26T10:45:57.136Z,22.97
2023-04-26T10:48:32.014Z,22.92
2023-04-26T10:51:02.454Z,23.09
2023-04-26T10:53:31.410Z,23.18
2023-04-26T10:55:58.701Z,23.28
2023-04-26T10:58:35.843Z,23.62
2023-04-26T11:01:16.603Z,23.95
2023-04-26T11:03:59.366Z,24.20
2023-04-26T11:06:29.910Z,24.36
2023-04-26T11:09:00.121Z,24.56
2023-04-26T11:11:28.964Z,24.33
2023-04-26T11:13:56.804Z,24.25
2023-04-26T11:16:26.920Z,24.20
2023-04-26T11:18:55.880Z,24.37
2023-04-26T11:21:22.820Z,24.35
2023-04-26T11:23:56.110Z,24.25
2023-04-26T11:26:24.793Z,24.09
2023-04-26T11:28:52.337Z,24.24
2023-04-26T11:31:19.800Z,24.33
2023-04-26T11:33:49.918Z,23.64
2023-04-26T11:36:19.873Z,23.36
2023-04-26T11:38:46.982Z,22.86
2023-04-26T11:41:14.089Z,22.99
2023-04-26T11:43:42.173Z,22.76
2023-04-26T11:46:10.360Z,22.15
2023-04-26T11:48:38.622Z,21.90
2023-04-26T11:51:07.781Z,21.82
2023-04-26T11:53:40.638Z,22.04
2023-04-26T11:56:33.996Z,22.31
2023-04-26T11:59:02.038Z,22.52
2023-04-26T12:01:30.166Z,22.91
2023-04-26T12:03:59.937Z,22.99
2023-04-26T12:06:45.896Z,23.04
2023-04-26T12:09:13.430Z,22.98
2023-04-26T12:11:40.731Z,22.99
2023-04-26T12:14:11.596Z,22.91
2023-04-26T12:16:38.743Z,22.92
2023-04-26T12:19:07.345Z,22.84
2023-04-26T12:21:42.638Z,22.76
2023-04-26T12:24:34.435Z,22.57
2023-04-26T12:27:03.045Z,22.58
2023-04-26T12:29:33.765Z,22.62
2023-04-26T12:32:01.504Z,22.52
2023-04-26T12:34:28.887Z,22.41
2023-04-26T12:36:55.972Z,22.30
2023-04-26T12:39:22.957Z,22.28
2023-04-26T12:41:49.931Z,22.29
2023-04-26T12:44:17.613Z,22.17
2023-04-26T12:46:46.537Z,22.00
2023-04-26T12:49:13.557Z,21.87
2023-04-26T12:51:40.866Z,21.76
2023-04-26T12:54:08.036Z,21.61
2023-04-26T12:56:38.619Z,21.51
2023-04-26T12:59:05.814Z,21.47
2023-04-26T13:01:32.905Z,21.50
2023-04-26T13:04:01.460Z,20.99
2023-04-26T13:06:28.808Z,20.51
2023-04-26T13:08:55.964Z,20.37
2023-04-26T13:11:23.223Z,20.93
2023-04-26T13:13:50.461Z,21.32
2023-04-26T13:16:17.533Z,21.19
2023-04-26T13:18:44.536Z,20.84
2023-04-26T13:21:11.530Z,20.79
2023-04-26T13:23:38.420Z,20.96
2023-04-26T13:26:05.518Z,21.09
2023-04-26T13:28:32.620Z,20.95
2023-04-26T13:30:59.816Z,21.29
2023-04-26T13:33:27.404Z,21.31
2023-04-26T13:35:54.351Z,21.45
2023-04-26T13:38:21.583Z,21.49
2023-04-26T13:40:48.700Z,20.77
2023-04-26T13:43:15.669Z,20.81
2023-04-26T13:45:43.288Z,20.79
2023-04-26T13:48:10.305Z,20.55
2023-04-26T13:50:37.356Z,20.97
2023-04-26T13:53:04.705Z,21.16
2023-04-26T13:55:31.865Z,21.19
2023-04-26T13:57:59.228Z,21.29
2023-04-26T14:00:26.406Z,21.39
2023-04-26T14:02:54.461Z,21.45
2023-04-26T14:05:21.907Z,21.37
2023-04-26T14:07:55.481Z,21.35
2023-04-26T14:10:22.547Z,21.42
2023-04-26T14:12:49.849Z,21.36
2023-04-26T14:15:16.888Z,21.00
2023-04-26T14:17:46.801Z,21.26
2023-04-26T14:20:13.881Z,21.24
2023-04-26T14:22:40.857Z,21.23
2023-04-26T14:25:08.175Z,21.13
2023-04-26T14:27:41.638Z,21.20
2023-04-26T14:30:08.947Z,21.11
2023-04-26T14:32:36.023Z,21.27
2023-04-26T14:35:03.066Z,21.38
2023-04-26T14:37:29.992Z,21.23
2023-04-26T14:39:57.058Z,21.31
2023-04-26T14:42:24.090Z,21.19
2023-04-26T14:44:51.379Z,20.88
2023-04-26T14:47:18.305Z,20.91
2023-04-26T14:49:45.235Z,21.09
2023-04-26T14:52:12.255Z,20.76
2023-04-26T14:54:39.874Z,20.66
2023-04-26T14:57:07.139Z,20.80
2023-04-26T14:59:34.540Z,20.62
2023-04-26T15:02:01.488Z,20.78
2023-04-26T15:04:29.208Z,20.75
2023-04-26T15:06:57.083Z,20.69
2023-04-26T15:09:24.143Z,20.62
2023-04-26T15:11:51.050Z,20.59
2023-04-26T15:14:18.366Z,20.61
2023-04-26T15:16:45.413Z,20.64
2023-04-26T15:19:12.406Z,20.66
2023-04-26T15:21:39.428Z,20.70
2023-04-26T15:24:07.826Z,20.79
2023-04-26T15:26:34.876Z,20.87
2023-04-26T15:29:02.054Z,20.84
2023-04-26T15:31:29.051Z,20.98
2023-04-26T15:33:58.878Z,20.98
2023-04-26T15:36:26.088Z,21.11
2023-04-26T15:38:53.178Z,20.84
2023-04-26T15:41:20.418Z,20.82
2023-04-26T15:43:54.380Z,21.00
2023-04-26T15:46:22.170Z,21.06
2023-04-26T15:48:49.136Z,20.97
2023-04-26T15:51:16.454Z,21.03
2023-04-26T15:53:44.187Z,21.14
2023-04-26T15:56:15.667Z,21.13
2023-04-26T15:58:44.767Z,21.07
2023-04-26T16:01:12.416Z,21.05
2023-04-26T16:03:39.906Z,20.99
2023-04-26T16:06:08.131Z,20.95
2023-04-26T16:11:06.141Z,21.04
2023-04-26T16:13:40.219Z,21.00
2023-04-26T16:16:11.259Z,21.08
2023-04-26T16:18:39.912Z,21.13
2023-04-26T16:21:09.956Z,21.15
2023-04-26T16:23:37.323Z,21.20
2023-04-26T16:26:04.890Z,21.29
2023-04-26T16:28:32.217Z,21.35
2023-04-26T16:30:59.229Z,21.16
2023-04-26T16:33:26.835Z,21.35
2023-04-26T16:35:55.240Z,21.24
2023-04-26T16:38:23.084Z,21.09
2023-04-26T16:41:01.539Z,21.13
2023-04-26T16:43:30.383Z,20.99
2023-04-26T16:46:05.404Z,20.87
2023-04-26T16:48:37.140Z,20.77
2023-04-26T16:51:07.669Z,20.62
2023-04-26T16:53:36.068Z,20.59
2023-04-26T16:56:03.664Z,20.74
2023-04-26T16:58:30.654Z,20.77
2023-04-26T17:00:58.219Z,20.68
2023-04-26T17:03:25.874Z,20.77
2023-04-26T17:05:53.347Z,20.76
2023-04-26T17:08:20.659Z,20.68
2023-04-26T17:10:48.204Z,20.42
2023-04-26T17:13:15.371Z,20.52
2023-04-26T17:15:42.889Z,20.56
2023-04-26T17:18:11.126Z,20.62
2023-04-26T17:20:38.408Z,20.66
2023-04-26T17:23:05.710Z,20.67
2023-04-26T17:25:32.637Z,20.68
2023-04-26T17:27:59.648Z,20.64
2023-04-26T17:30:26.738Z,20.64
2023-04-26T17:32:53.808Z,20.61
2023-04-26T17:35:20.942Z,20.62
2023-04-26T17:37:50.259Z,20.62
2023-04-26T17:40:18.774Z,20.59
2023-04-26T17:42:46.812Z,20.51
2023-04-26T17:45:14.751Z,20.51
2023-04-26T17:47:45.666Z,20.55
2023-04-26T17:50:12.781Z,20.52
2023-04-26T17:52:39.789Z,20.55
2023-04-26T17:55:09.625Z,20.51
2023-04-26T17:57:37.413Z,20.52
2023-04-26T18:00:10.030Z,20.52
2023-04-26T18:02:37.550Z,20.49
2023-04-26T18:05:06.049Z,20.51
2023-04-26T18:07:33.076Z,20.45
2023-04-26T18:09:59.970Z,20.37
2023-04-26T18:12:28.058Z,20.43
2023-04-26T18:14:55.018Z,20.50
2023-04-26T18:17:22.088Z,20.51
2023-04-26T18:19:49.200Z,20.53
2023-04-26T18:22:16.285Z,20.42
2023-04-26T18:24:43.264Z,20.31
2023-04-26T18:27:12.529Z,20.19
2023-04-26T18:29:39.768Z,19.94
2023-04-26T18:32:06.697Z,20.00
2023-04-26T18:34:33.642Z,19.76
2023-04-26T18:37:00.651Z,19.45
2023-04-26T18:39:27.624Z,19.14
2023-04-26T18:41:54.569Z,19.14
2023-04-26T18:44:21.602Z,18.93
2023-04-26T18:46:48.813Z,18.90
2023-04-26T18:49:15.849Z,19.03
2023-04-26T18:51:44.094Z,19.06
2023-04-26T18:54:11.154Z,19.07
2023-04-26T18:56:38.510Z,19.14
2023-04-26T18:59:05.776Z,19.16
2023-04-26T19:01:33.022Z,19.18
2023-04-26T19:04:00.148Z,19.07
2023-04-26T19:06:28.273Z,19.13
2023-04-26T19:08:55.295Z,19.10
2023-04-26T19:11:22.396Z,19.05
2023-04-26T19:13:49.369Z,18.91
2023-04-26T19:16:16.373Z,18.88
2023-04-26T19:18:44.383Z,18.73
2023-04-26T19:21:14.927Z,18.64
2023-04-26T19:23:43.550Z,18.58
2023-04-26T19:26:15.162Z,18.52
2023-04-26T19:28:42.483Z,18.59
2023-04-26T19:31:09.497Z,18.64
2023-04-26T19:33:37.223Z,18.61
2023-04-26T19:36:08.868Z,18.50
2023-04-26T19:38:35.941Z,18.52
2023-04-26T19:41:02.922Z,18.56
2023-04-26T19:43:29.983Z,18.50
2023-04-26T19:45:56.976Z,18.60
2023-04-26T19:48:24.038Z,18.69
2023-04-26T19:50:51.032Z,18.76
2023-04-26T19:53:17.953Z,18.82
2023-04-26T19:55:45.393Z,18.84
2023-04-26T19:58:12.650Z,18.86
2023-04-26T20:00:40.470Z,18.81
2023-04-26T20:03:07.872Z,18.79
2023-04-26T20:05:35.101Z,18.86
2023-04-26T20:08:02.811Z,18.88
2023-04-26T20:10:34.363Z,18.89
2023-04-26T20:13:01.608Z,19.01
2023-04-26T20:15:30.451Z,19.07
2023-04-26T20:17:58.803Z,19.15
2023-04-26T20:20:25.785Z,19.20
2023-04-26T20:22:52.817Z,19.12
2023-04-26T20:25:22.421Z,19.13
2023-04-26T20:27:49.564Z,19.10
2023-04-26T20:30:16.781Z,19.06
2023-04-26T20:32:44.419Z,18.90
2023-04-26T20:35:13.750Z,18.82
2023-04-26T20:40:23.096Z,18.63
2023-04-26T20:42:50.017Z,18.61
2023-04-26T20:45:18.033Z,18.64
2023-04-26T20:47:47.183Z,18.71
2023-04-26T20:50:14.285Z,18.70
2023-04-26T20:52:41.609Z,18.64
2023-04-26T20:55:08.767Z,18.72
2023-04-26T20:57:36.432Z,18.81
2023-04-26T21:00:06.515Z,18.80
2023-04-26T21:02:33.738Z,18.77
2023-04-26T21:05:01.117Z,18.82
2023-04-26T21:07:28.103Z,18.75
2023-04-26T21:09:55.033Z,18.84
2023-04-26T21:12:22.078Z,18.87
2023-04-26T21:14:49.292Z,18.90
2023-04-26T21:17:16.398Z,18.91
2023-04-26T21:19:43.621Z,18.98
2023-04-26T21:22:10.909Z,19.04
2023-04-26T21:24:38.054Z,19.05
2023-04-26T21:27:05.107Z,19.03
2023-04-26T21:29:32.234Z,19.02
2023-04-26T21:31:59.264Z,19.08
2023-04-26T21:34:26.447Z,19.13
2023-04-26T21:36:54.535Z,19.12
2023-04-26T21:39:21.930Z,19.14
2023-04-26T21:41:48.979Z,19.08
2023-04-26T21:44:15.860Z,19.07
2023-04-26T21:46:42.955Z,19.12
2023-04-26T21:49:16.551Z,19.14
2023-04-26T21:51:43.592Z,19.15
2023-04-26T21:54:10.569Z,19.20
2023-04-26T21:56:42.778Z,19.23
2023-04-26T21:59:18.094Z,19.27
2023-04-26T22:01:45.136Z,19.26
2023-04-26T22:04:12.511Z,19.29
2023-04-26T22:06:39.650Z,19.28
2023-04-26T22:09:09.765Z,19.29
2023-04-26T22:11:37.854Z,19.25
2023-04-26T22:14:04.909Z,19.27
2023-04-26T22:16:32.117Z,19.30
2023-04-26T22:18:59.207Z,19.29
2023-04-26T22:21:27.068Z,19.29
2023-04-26T22:23:54.230Z,19.29
2023-04-26T22:26:21.683Z,19.29
2023-04-26T22:28:48.638Z,19.28
2023-04-26T22:31:16.060Z,19.24
2023-04-26T22:33:43.833Z,19.26
2023-04-26T22:36:11.505Z,19.22
2023-04-26T22:38:38.632Z,19.24
2023-04-26T22:41:07.623Z,19.25
2023-04-26T22:43:36.105Z,19.21
2023-04-26T22:46:03.196Z,19.21
2023-04-26T22:48:30.267Z,19.18
2023-04-26T22:50:57.660Z,19.22
2023-04-26T22:53:24.555Z,19.23
2023-04-26T22:55:52.045Z,19.21
2023-04-26T22:58:19.117Z,19.21
2023-04-26T23:00:46.089Z,19.21
2023-04-26T23:03:13.560Z,19.20
2023-04-26T23:05:41.255Z,19.22
2023-04-26T23:08:08.220Z,19.20
2023-04-26T23:10:35.193Z,19.19
2023-04-26T23:13:02.636Z,19.17
2023-04-26T23:15:29.594Z,19.16
2023-04-26T23:17:56.682Z,19.15
2023-04-26T23:20:27.803Z,19.13
2023-04-26T23:22:54.969Z,19.12
2023-04-26T23:25:22.802Z,19.11
2023-04-26T23:27:50.195Z,19.10
2023-04-26T23:30:18.016Z,19.04
2023-04-26T23:32:45.757Z,19.03
2023-04-26T23:35:12.752Z,19.04
2023-04-26T23:37:39.984Z,18.99
2023-04-26T23:40:10.771Z,18.97
2023-04-26T23:42:38.023Z,18.98
2023-04-26T23:45:05.587Z,18.96
2023-04-26T23:47:32.865Z,18.95
2023-04-26T23:50:00.321Z,18.91
2023-04-26T23:52:27.802Z,18.89
2023-04-26T23:54:55.121Z,18.90
2023-04-26T23:57:22.097Z,18.88
2023-04-26T23:59:49.057Z,18.88
